Time;durP1;ratioP1;P1;durP2;ratioP2;P2;SDS_P1;SDS_P2;PMS_P1;PMS_P2;Temp;Humidity;BMP_temperature;BMP_pressure;BME280_temperature;BME280_humidity;BME280_pressure;Samples;Min_cycle;Max_cycle;Signal;HPM_P1;HPM_P2
2021/04/24 00:00:12;;;;;;;15.02;8.23;;;;;;;10.14;45.76;102784.00;4918214;28;116258;-73
2021/04/24 00:02:40;;;;;;;18.20;8.93;;;;;;;10.08;45.80;102794.66;4930258;28;123970;-73
2021/04/24 00:05:10;;;;;;;15.88;8.45;;;;;;;10.01;45.90;102792.97;4947932;28;123901;-72
2021/04/24 00:07:36;;;;;;;15.70;8.95;;;;;;;9.96;45.46;102790.38;4930139;28;113514;-73
2021/04/24 00:10:04;;;;;;;13.82;8.82;;;;;;;9.91;45.88;102797.50;4938327;28;114608;-73
2021/04/24 00:12:31;;;;;;;15.63;8.88;;;;;;;9.86;45.90;102800.19;4928083;28;123454;-73
2021/04/24 00:14:57;;;;;;;18.52;8.65;;;;;;;9.81;46.01;102796.69;4928232;28;121991;-73
2021/04/24 00:17:24;;;;;;;14.43;9.05;;;;;;;9.78;46.16;102801.19;4935415;28;114559;-73
2021/04/24 00:19:51;;;;;;;17.80;8.95;;;;;;;9.77;46.04;102794.97;4918303;28;115514;-72
2021/04/24 00:22:18;;;;;;;17.10;9.27;;;;;;;9.74;46.13;102795.03;4916550;28;124229;-73
2021/04/24 00:24:44;;;;;;;14.68;8.85;;;;;;;9.71;46.34;102792.41;4934465;28;124118;-73
2021/04/24 00:27:11;;;;;;;17.83;8.98;;;;;;;9.67;45.99;102793.34;4917759;28;113700;-73
2021/04/24 00:29:37;;;;;;;18.63;9.35;;;;;;;9.63;46.35;102791.63;4927895;28;112109;-73
2021/04/24 00:32:05;;;;;;;16.80;8.73;;;;;;;9.60;46.08;102802.22;4923142;28;122841;-72
2021/04/24 00:34:32;;;;;;;15.63;8.57;;;;;;;9.57;46.20;102799.59;4943726;28;123393;-73
2021/04/24 00:36:58;;;;;;;16.65;9.05;;;;;;;9.53;46.48;102797.00;4927787;28;112403;-72
2021/04/24 00:39:25;;;;;;;19.50;8.68;;;;;;;9.50;46.38;102791.72;4931606;28;114587;-73
2021/04/24 00:41:52;;;;;;;14.02;8.50;;;;;;;9.49;46.59;102794.38;4915573;28;123514;-73
2021/04/24 00:44:18;;;;;;;15.85;8.60;;;;;;;9.44;46.44;102789.13;4904188;28;123989;-72
2021/04/24 00:46:45;;;;;;;15.75;8.52;;;;;;;9.42;46.47;102798.84;4916309;28;114694;-73
2021/04/24 00:49:12;;;;;;;16.42;8.75;;;;;;;9.38;46.74;102790.94;4912588;28;114009;-73
2021/04/24 00:51:38;;;;;;;16.02;8.73;;;;;;;9.36;46.82;102793.59;4914415;28;123539;-73
2021/04/24 00:54:06;;;;;;;15.48;8.93;;;;;;;9.34;46.84;102795.38;4898336;28;122900;-72
2021/04/24 00:56:34;;;;;;;16.45;8.23;;;;;;;9.32;46.86;102786.59;4930739;28;114230;-73
2021/04/24 00:59:01;;;;;;;17.13;8.85;;;;;;;9.30;46.97;102788.38;4918852;28;113669;-72
2021/04/24 01:01:28;;;;;;;17.17;8.93;;;;;;;9.26;46.96;102779.59;4934932;28;124484;-73
2021/04/24 01:03:55;;;;;;;21.35;8.93;;;;;;;9.24;46.75;102793.72;4901597;28;123274;-73
2021/04/24 01:06:22;;;;;;;16.50;8.55;;;;;;;9.22;47.21;102779.63;4926185;28;115190;-73
2021/04/24 01:08:48;;;;;;;19.50;8.65;;;;;;;9.20;47.07;102786.69;4926694;28;115254;-73
2021/04/24 01:11:17;;;;;;;16.15;8.48;;;;;;;9.20;47.21;102784.06;4917589;28;123637;-72
2021/04/24 01:13:43;;;;;;;16.35;8.88;;;;;;;9.19;47.27;102784.94;4933995;28;124628;-73
2021/04/24 01:16:10;;;;;;;19.20;8.43;;;;;;;9.18;47.45;102783.19;4915216;28;113507;-73
2021/04/24 01:18:37;;;;;;;17.70;8.52;;;;;;;9.15;47.36;102779.69;4934626;28;113890;-72
2021/04/24 01:21:07;;;;;;;15.48;8.75;;;;;;;9.13;47.35;102784.09;4897332;28;122148;-73
2021/04/24 01:23:34;;;;;;;18.58;8.20;;;;;;;9.11;47.54;102774.41;4933317;28;124513;-73
2021/04/24 01:26:01;;;;;;;17.55;8.50;;;;;;;9.09;47.58;102774.44;4935183;28;114484;-75
2021/04/24 01:28:29;;;;;;;15.60;9.05;;;;;;;9.04;47.53;102765.69;4916675;28;113260;-72
2021/04/24 01:30:56;;;;;;;19.00;9.35;;;;;;;9.00;47.57;102768.34;4916644;28;124083;-72
2021/04/24 01:33:23;;;;;;;17.08;9.20;;;;;;;8.96;47.67;102762.19;4917840;28;123524;-72
2021/04/24 01:35:50;;;;;;;17.92;8.90;;;;;;;8.94;47.73;102769.25;4935019;28;114283;-72
2021/04/24 01:38:17;;;;;;;17.70;8.65;;;;;;;8.91;47.32;102759.59;4897707;28;113059;-72
2021/04/24 01:40:44;;;;;;;17.33;8.85;;;;;;;8.91;47.59;102764.00;4915859;28;123027;-73
2021/04/24 01:43:11;;;;;;;19.20;8.73;;;;;;;8.89;47.89;102766.66;4943483;28;123991;-73
2021/04/24 01:45:38;;;;;;;17.60;8.48;;;;;;;8.88;47.73;102759.63;4936600;28;112123;-72
2021/04/24 01:48:06;;;;;;;19.13;8.57;;;;;;;8.86;47.93;102760.53;4935881;28;114246;-73
2021/04/24 01:50:41;;;;;;;18.65;8.88;;;;;;;8.85;48.00;102764.03;4934830;28;123905;-73
2021/04/24 01:53:11;;;;;;;14.75;8.98;;;;;;;8.84;47.66;102762.31;4929780;28;124425;-73
2021/04/24 01:55:40;;;;;;;16.92;8.88;;;;;;;8.81;48.04;102762.31;4914351;28;115499;-73
2021/04/24 01:58:09;;;;;;;17.92;8.52;;;;;;;8.81;47.84;102770.25;4911223;28;113548;-73
2021/04/24 02:00:40;;;;;;;17.17;8.93;;;;;;;8.80;48.31;102771.09;4919596;28;124029;-73
2021/04/24 02:03:12;;;;;;;17.70;9.20;;;;;;;8.77;48.28;102772.88;4930758;28;124065;-73
2021/04/24 02:05:40;;;;;;;13.57;8.73;;;;;;;8.75;47.93;102769.38;4932505;28;114536;-73
2021/04/24 02:08:10;;;;;;;16.48;9.10;;;;;;;8.73;48.28;102776.44;4932062;28;113753;-73
2021/04/24 02:10:41;;;;;;;17.00;8.75;;;;;;;8.70;47.95;102771.19;4934267;28;123092;-73
2021/04/24 02:13:15;;;;;;;19.05;9.02;;;;;;;8.70;48.24;102768.56;4901428;28;123823;-73
2021/04/24 02:15:42;;;;;;;15.38;8.85;;;;;;;8.69;48.40;102769.44;4933016;28;114442;-71
2021/04/24 02:18:09;;;;;;;19.45;9.27;;;;;;;8.67;48.30;102770.34;4916919;28;114065;-72
2021/04/24 02:20:38;;;;;;;19.77;9.50;;;;;;;8.64;48.43;102765.94;4913821;28;124112;-73
2021/04/24 02:23:05;;;;;;;20.42;9.02;;;;;;;8.62;48.26;102767.72;4917304;28;122149;-72
2021/04/24 02:25:32;;;;;;;16.55;8.88;;;;;;;8.59;48.25;102773.03;4900619;28;113898;-71
2021/04/24 02:27:59;;;;;;;17.25;9.80;;;;;;;8.57;48.75;102765.09;4934435;28;113991;-72
2021/04/24 02:30:26;;;;;;;17.98;9.40;;;;;;;8.57;48.32;102765.09;4915937;28;123722;-72
2021/04/24 02:32:53;;;;;;;15.20;9.02;;;;;;;8.56;48.43;102773.03;4916241;28;123846;-73
2021/04/24 02:35:31;;;;;;;17.33;8.43;;;;;;;8.53;48.53;102768.66;4933546;28;114057;-72
2021/04/24 02:37:57;;;;;;;22.55;9.23;;;;;;;8.53;48.66;102773.03;4915210;28;113618;-72
2021/04/24 02:40:24;;;;;;;18.08;9.35;;;;;;;8.52;48.76;102779.22;4899925;28;124149;-72
2021/04/24 02:42:51;;;;;;;16.73;9.48;;;;;;;8.52;49.19;102776.59;4930895;28;124068;-72
2021/04/24 02:45:18;;;;;;;18.33;9.15;;;;;;;8.50;48.65;102778.34;4919377;28;114313;-72
2021/04/24 02:47:45;;;;;;;18.10;9.15;;;;;;;8.48;48.74;102774.84;4915289;28;114285;-72
2021/04/24 02:50:18;;;;;;;18.17;9.18;;;;;;;8.45;48.92;102774.84;4933733;28;124713;-72
2021/04/24 02:52:45;;;;;;;19.27;9.30;;;;;;;8.43;48.90;102776.63;4914911;28;123331;-72
2021/04/24 02:55:14;;;;;;;16.35;9.25;;;;;;;8.41;48.87;102773.09;4927770;28;113160;-72
2021/04/24 02:57:42;;;;;;;13.80;8.77;;;;;;;8.41;49.00;102762.53;4941026;28;113997;-73
2021/04/24 03:00:10;;;;;;;19.80;10.07;;;;;;;8.42;48.89;102774.84;4920616;28;124013;-71
2021/04/24 03:02:37;;;;;;;17.50;9.02;;;;;;;8.41;48.86;102762.53;4931644;28;124308;-72
2021/04/24 03:05:12;;;;;;;19.70;8.95;;;;;;;8.41;49.28;102767.81;4916690;28;114101;-72
2021/04/24 03:07:39;;;;;;;16.83;9.23;;;;;;;8.42;48.65;102769.56;4914203;28;113119;-72
2021/04/24 03:10:07;;;;;;;24.00;9.38;;;;;;;8.43;49.02;102781.91;4933001;28;123731;-72
2021/04/24 03:12:35;;;;;;;17.08;8.95;;;;;;;8.42;48.78;102774.84;4915359;28;122474;-72
2021/04/24 03:15:04;;;;;;;16.92;8.57;;;;;;;8.41;49.13;102770.44;4915264;28;113494;-72
2021/04/24 03:17:31;;;;;;;22.23;9.60;;;;;;;8.40;49.12;102774.84;4933473;28;113711;-72
2021/04/24 03:19:57;;;;;;;15.35;8.65;;;;;;;8.41;48.83;102778.38;4915247;28;124120;-72
2021/04/24 03:22:24;;;;;;;17.02;9.25;;;;;;;8.39;48.60;102771.31;4900098;28;123547;-72
2021/04/24 03:24:51;;;;;;;18.35;9.48;;;;;;;8.38;48.66;102769.56;4932751;28;114589;-73
2021/04/24 03:27:17;;;;;;;15.25;9.18;;;;;;;8.36;48.84;102771.34;4924971;28;113013;-73
2021/04/24 03:29:44;;;;;;;16.67;9.27;;;;;;;8.36;48.64;102781.00;4918632;28;124506;-73
2021/04/24 03:32:10;;;;;;;15.52;9.05;;;;;;;8.34;48.79;102767.84;4933795;28;123403;-72
2021/04/24 03:34:37;;;;;;;15.60;8.80;;;;;;;8.32;48.72;102769.59;4915185;28;114815;-72
2021/04/24 03:37:04;;;;;;;23.38;10.40;;;;;;;8.30;48.63;102760.78;4895744;23;120186;-75
2021/04/24 03:39:31;;;;;;;21.63;9.93;;;;;;;8.30;49.22;102768.72;4885997;28;124735;-73
2021/04/24 03:41:57;;;;;;;26.55;10.25;;;;;;;8.28;49.28;102770.47;4871901;28;124363;-74
2021/04/24 03:44:24;;;;;;;20.13;9.80;;;;;;;8.27;48.97;102781.94;4874708;28;115503;-74
2021/04/24 03:46:51;;;;;;;19.20;9.85;;;;;;;8.25;49.19;102778.44;4858455;28;114001;-74
2021/04/24 03:49:17;;;;;;;20.15;9.88;;;;;;;8.24;48.91;102781.06;4859012;28;123049;-74
2021/04/24 03:51:44;;;;;;;21.95;10.23;;;;;;;8.23;48.92;102774.03;4855174;28;124264;-73
2021/04/24 03:54:10;;;;;;;22.75;10.60;;;;;;;8.22;49.18;102772.28;4862017;28;114839;-75
2021/04/24 03:56:37;;;;;;;20.65;10.02;;;;;;;8.21;49.33;102771.38;4862818;28;114852;-74
2021/04/24 03:59:04;;;;;;;22.08;10.02;;;;;;;8.20;49.56;102764.38;4875807;28;124177;-74
2021/04/24 04:01:30;;;;;;;22.30;9.90;;;;;;;8.19;49.10;102767.88;4885749;28;124428;-73
2021/04/24 04:03:57;;;;;;;22.35;10.15;;;;;;;8.18;49.24;102760.88;4860494;28;114040;-75
2021/04/24 04:06:23;;;;;;;19.08;10.48;;;;;;;8.16;49.28;102763.50;4874390;28;114703;-74
2021/04/24 04:08:50;;;;;;;18.73;9.73;;;;;;;8.15;49.47;102766.16;4872258;28;124276;-74
2021/04/24 04:11:16;;;;;;;21.02;10.10;;;;;;;8.13;49.41;102767.91;4860862;28;124512;-73
2021/04/24 04:13:43;;;;;;;23.02;10.18;;;;;;;8.11;49.36;102769.69;4842829;28;113746;-73
2021/04/24 04:16:10;;;;;;;20.73;10.30;;;;;;;8.09;49.18;102768.81;4859292;28;114614;-73
2021/04/24 04:18:37;;;;;;;20.92;10.13;;;;;;;8.06;49.06;102767.06;4872705;28;124466;-73
2021/04/24 04:21:06;;;;;;;18.60;9.38;;;;;;;8.05;48.88;102769.72;4872755;28;123910;-73
2021/04/24 04:23:34;;;;;;;19.70;9.70;;;;;;;8.01;49.19;102768.84;4856041;28;115077;-75
2021/04/24 04:26:01;;;;;;;18.73;10.23;;;;;;;7.98;49.27;102763.56;4837243;28;114523;-74
2021/04/24 04:28:28;;;;;;;19.25;9.75;;;;;;;7.94;49.19;102778.53;4843182;28;123949;-74
2021/04/24 04:30:55;;;;;;;21.85;10.00;;;;;;;7.92;49.23;102775.00;4856477;28;122793;-73
2021/04/24 04:33:23;;;;;;;22.23;10.07;;;;;;;7.90;49.51;102782.06;4876863;28;114530;-74
2021/04/24 04:35:50;;;;;;;21.52;10.20;;;;;;;7.86;49.53;102777.69;4876899;28;114282;-74
2021/04/24 04:38:17;;;;;;;18.42;9.73;;;;;;;7.85;49.46;102788.22;4873956;28;123919;-74
2021/04/24 04:40:45;;;;;;;20.27;9.55;;;;;;;7.83;49.42;102784.72;4860265;28;122625;-74
2021/04/24 04:43:13;;;;;;;18.95;10.30;;;;;;;7.80;49.57;102786.47;4863512;28;114730;-73
2021/04/24 04:45:40;;;;;;;22.05;10.05;;;;;;;7.79;49.92;102789.13;4851296;28;113511;-75
2021/04/24 04:48:07;;;;;;;19.05;10.45;;;;;;;7.78;49.51;102792.66;4871893;28;124426;-74
2021/04/24 04:50:35;;;;;;;20.30;10.13;;;;;;;7.75;49.76;102788.25;4865951;28;123020;-74
2021/04/24 04:53:02;;;;;;;21.48;9.30;;;;;;;7.73;49.82;102790.00;4882865;28;114687;-74
2021/04/24 04:55:29;;;;;;;20.45;10.07;;;;;;;7.73;49.75;102789.13;4881381;28;114305;-74
2021/04/24 04:57:56;;;;;;;19.58;10.52;;;;;;;7.73;49.86;102789.13;4883607;28;123910;-73
2021/04/24 05:00:24;;;;;;;23.92;10.05;;;;;;;7.72;50.35;102797.91;4859851;28;123356;-73
2021/04/24 05:02:51;;;;;;;21.45;11.05;;;;;;;7.73;50.08;102794.41;4872563;28;113526;-74
2021/04/24 05:05:19;;;;;;;20.40;10.43;;;;;;;7.74;50.38;102796.16;4877108;28;114462;-74
2021/04/24 05:07:49;;;;;;;21.38;10.45;;;;;;;7.75;50.41;102798.78;4859006;28;124092;-74
2021/04/24 05:10:25;;;;;;;27.27;9.73;;;;;;;7.77;50.51;102796.16;4875820;28;124344;-74
2021/04/24 05:12:53;;;;;;;25.35;10.65;;;;;;;7.78;50.21;102803.22;4862468;28;116636;-74
2021/04/24 05:15:20;;;;;;;22.13;10.55;;;;;;;7.78;50.21;102803.22;4876479;28;114956;-74
2021/04/24 05:17:47;;;;;;;22.73;10.52;;;;;;;7.79;50.35;102799.66;4875856;28;124064;-74
2021/04/24 05:20:15;;;;;;;21.42;10.55;;;;;;;7.80;50.69;102796.16;4859533;28;124470;-74
2021/04/24 05:22:46;;;;;;;30.60;10.63;;;;;;;7.83;50.81;102796.13;4876299;28;114392;-74
2021/04/24 05:25:14;;;;;;;27.95;10.75;;;;;;;7.86;50.61;102801.41;4876714;28;114405;-74
2021/04/24 05:27:44;;;;;;;30.55;10.45;;;;;;;7.90;50.71;102797.03;4875429;28;124167;-73
2021/04/24 05:30:12;;;;;;;25.45;10.73;;;;;;;7.93;51.04;102795.25;4868580;28;123939;-73
2021/04/24 05:32:39;;;;;;;26.63;11.65;;;;;;;7.95;51.12;102790.84;4858526;28;114540;-74
2021/04/24 05:35:07;;;;;;;26.02;11.55;;;;;;;7.98;50.98;102785.53;4866714;28;113099;-73
2021/04/24 05:37:33;;;;;;;32.08;11.77;;;;;;;8.02;51.05;102794.34;4864644;28;124577;-74
2021/04/24 05:40:00;;;;;;;21.42;10.63;;;;;;;8.07;51.22;102799.63;4862244;28;123626;-75
2021/04/24 05:42:31;;;;;;;31.65;11.90;;;;;;;8.12;51.38;102803.13;4875896;28;114947;-74
2021/04/24 05:44:58;;;;;;;21.90;11.30;;;;;;;8.16;51.37;102796.94;4858746;28;114225;-73
2021/04/24 05:47:26;;;;;;;24.65;11.55;;;;;;;8.21;51.53;102803.06;4875620;28;124286;-74
2021/04/24 05:49:53;;;;;;;26.45;11.18;;;;;;;8.24;51.57;102808.34;4871653;28;125012;-73
2021/04/24 05:52:19;;;;;;;23.27;12.13;;;;;;;8.29;51.76;102801.28;4875900;28;113875;-75
2021/04/24 05:54:46;;;;;;;26.05;11.95;;;;;;;8.35;51.95;102800.38;4875782;28;114029;-75
2021/04/24 05:57:13;;;;;;;25.45;11.75;;;;;;;8.40;51.87;102798.63;4874766;28;123788;-74
2021/04/24 05:59:39;;;;;;;27.92;11.82;;;;;;;8.47;52.17;102815.31;4886205;28;124018;-74
2021/04/24 06:02:07;;;;;;;26.10;12.05;;;;;;;8.51;51.94;102811.78;4889126;28;115287;-74
2021/04/24 06:04:34;;;;;;;22.70;12.27;;;;;;;8.54;52.03;102795.94;4859213;28;113787;-74
2021/04/24 06:07:01;;;;;;;25.50;11.90;;;;;;;8.58;52.36;102802.94;4875327;28;124940;-73
2021/04/24 06:09:28;;;;;;;23.50;11.02;;;;;;;8.63;52.49;102811.72;4875009;28;124196;-74
2021/04/24 06:11:54;;;;;;;27.40;11.82;;;;;;;8.68;52.34;102806.41;4864661;28;114542;-74
2021/04/24 06:14:21;;;;;;;26.67;11.82;;;;;;;8.71;52.65;102809.91;4882302;28;113965;-74
2021/04/24 06:16:48;;;;;;;24.73;12.45;;;;;;;8.75;52.64;102816.94;4858429;28;123647;-74
2021/04/24 06:19:14;;;;;;;20.35;11.23;;;;;;;8.81;52.68;102815.16;4860852;28;123879;-73
2021/04/24 06:21:41;;;;;;;28.98;11.82;;;;;;;8.89;52.95;102813.34;4865430;28;114525;-74
2021/04/24 06:24:08;;;;;;;25.20;11.75;;;;;;;8.95;53.10;102813.31;4874987;28;114019;-73
2021/04/24 06:26:35;;;;;;;23.50;12.25;;;;;;;9.02;53.21;102817.66;4875064;28;123957;-73
2021/04/24 06:29:01;;;;;;;22.40;11.32;;;;;;;9.07;53.04;102823.78;4846798;28;122800;-73
2021/04/24 06:31:28;;;;;;;24.08;11.38;;;;;;;9.13;53.52;102821.09;4858179;28;114542;-74
2021/04/24 06:33:55;;;;;;;23.70;12.43;;;;;;;9.18;53.29;102820.22;4875978;28;113804;-74
2021/04/24 06:36:23;;;;;;;22.98;12.05;;;;;;;9.23;53.18;102813.09;4858219;28;123557;-73
2021/04/24 06:38:50;;;;;;;54.15;13.60;;;;;;;9.31;53.93;102811.28;4859337;28;124045;-73
2021/04/24 06:41:17;;;;;;;21.70;11.55;;;;;;;9.41;53.90;102812.97;4875103;28;114970;-74
2021/04/24 06:43:43;;;;;;;26.00;11.70;;;;;;;9.52;53.76;102812.88;4854919;28;112912;-73
2021/04/24 06:46:11;;;;;;;21.65;10.95;;;;;;;9.64;53.87;102811.88;4858563;28;124437;-73
2021/04/24 06:48:37;;;;;;;20.55;10.45;;;;;;;9.76;53.50;102814.41;4874525;28;123798;-72
2021/04/24 06:51:04;;;;;;;19.85;11.00;;;;;;;9.89;53.59;102809.88;4874717;28;115806;-74
2021/04/24 06:53:31;;;;;;;19.50;9.88;;;;;;;10.05;53.38;102810.56;4855277;28;114720;-73
2021/04/24 06:55:57;;;;;;;19.17;9.75;;;;;;;10.21;53.34;102813.91;4846623;28;122940;-73
2021/04/24 06:58:25;;;;;;;19.10;9.85;;;;;;;10.37;53.37;102812.88;4871477;28;123881;-73
2021/04/24 07:00:54;;;;;;;21.45;10.35;;;;;;;10.54;53.31;102815.31;4874908;28;114341;-73
2021/04/24 07:03:22;;;;;;;19.63;10.30;;;;;;;10.69;52.53;102809.78;4875292;28;114582;-72
2021/04/24 07:05:49;;;;;;;17.38;9.43;;;;;;;10.85;52.97;102814.88;4873898;28;123075;-73
2021/04/24 07:08:16;;;;;;;16.23;8.23;;;;;;;11.00;52.34;102814.66;4858047;28;123859;-72
2021/04/24 07:10:42;;;;;;;16.27;8.98;;;;;;;11.18;52.02;102802.03;4887277;28;115150;-72
2021/04/24 07:13:09;;;;;;;18.35;8.65;;;;;;;11.31;52.09;102808.88;4894101;28;113597;-73
2021/04/24 07:15:36;;;;;;;16.40;8.30;;;;;;;11.44;51.91;102799.81;4877278;28;124195;-73
2021/04/24 07:18:04;;;;;;;14.80;9.20;;;;;;;11.56;51.38;102797.84;4877468;28;124303;-73
2021/04/24 07:20:31;;;;;;;22.45;8.77;;;;;;;11.66;51.32;102804.75;4862915;28;114217;-72
2021/04/24 07:22:58;;;;;;;14.77;8.23;;;;;;;11.74;51.05;102802.81;4891576;28;114547;-73
2021/04/24 07:25:24;;;;;;;15.02;8.60;;;;;;;11.80;50.59;102809.78;4869382;28;124549;-73
2021/04/24 07:27:51;;;;;;;15.98;8.07;;;;;;;11.87;50.53;102799.03;4876290;28;123747;-73
2021/04/24 07:30:18;;;;;;;16.35;8.23;;;;;;;11.99;50.51;102799.72;4876836;28;114598;-72
2021/04/24 07:32:45;;;;;;;15.35;7.75;;;;;;;12.08;50.45;102792.44;4873575;28;112976;-73
2021/04/24 07:35:12;;;;;;;14.98;8.38;;;;;;;12.22;50.16;102789.53;4875843;28;123736;-73
2021/04/24 07:37:38;;;;;;;13.05;7.50;;;;;;;12.38;49.82;102794.53;4874070;28;124616;-73
2021/04/24 07:40:06;;;;;;;15.85;7.65;;;;;;;12.49;49.70;102787.19;4881597;28;115204;-73
2021/04/24 07:42:32;;;;;;;11.93;7.10;;;;;;;12.64;49.33;102785.97;4882268;28;115458;-72
2021/04/24 07:44:59;;;;;;;12.93;7.20;;;;;;;12.77;48.73;102791.88;4880622;28;124082;-73
2021/04/24 07:47:26;;;;;;;14.38;7.85;;;;;;;12.89;48.87;102786.28;4881119;28;123964;-73
2021/04/24 07:49:52;;;;;;;12.63;7.10;;;;;;;13.01;48.28;102780.66;4879755;28;114486;-72
2021/04/24 07:52:20;;;;;;;10.43;7.25;;;;;;;13.14;47.76;102789.22;4864670;28;113851;-73
2021/04/24 07:54:47;;;;;;;11.05;7.38;;;;;;;13.24;47.53;102780.13;4863145;28;123157;-72
2021/04/24 07:57:15;;;;;;;12.75;8.05;;;;;;;13.32;47.29;102790.59;4872834;28;124459;-71
2021/04/24 07:59:42;;;;;;;13.50;7.78;;;;;;;13.39;46.47;102786.88;4871947;28;114237;-71
2021/04/24 08:02:12;;;;;;;11.40;7.45;;;;;;;13.42;46.28;102792.09;4888074;28;113320;-72
2021/04/24 08:04:39;;;;;;;10.63;6.78;;;;;;;13.47;46.25;102788.44;4876787;28;124205;-71
2021/04/24 08:07:07;;;;;;;12.90;6.85;;;;;;;13.50;45.78;102785.69;4875729;28;122343;-71
2021/04/24 08:09:34;;;;;;;13.82;7.68;;;;;;;13.51;45.69;102779.47;4864239;28;113133;-71
2021/04/24 08:12:01;;;;;;;15.48;8.18;;;;;;;13.51;45.34;102780.34;4864146;28;113365;-72
2021/04/24 08:14:28;;;;;;;12.75;7.43;;;;;;;13.51;45.82;102784.81;4884955;28;123960;-71
2021/04/24 08:17:00;;;;;;;16.42;8.15;;;;;;;13.52;45.49;102774.09;4877024;28;123833;-73
2021/04/24 08:19:27;;;;;;;14.13;8.15;;;;;;;13.54;45.50;102779.38;4879258;28;114579;-72
2021/04/24 08:21:56;;;;;;;13.68;6.50;;;;;;;13.59;45.48;102772.16;4845313;28;113230;-72
2021/04/24 08:24:22;;;;;;;11.25;6.53;;;;;;;13.64;45.24;102775.56;4876573;28;124590;-71
2021/04/24 08:26:49;;;;;;;14.52;7.50;;;;;;;13.71;45.34;102766.50;4859948;28;122958;-71
2021/04/24 08:29:16;;;;;;;11.15;6.70;;;;;;;13.78;44.87;102778.72;4875333;28;115414;-72
2021/04/24 08:31:44;;;;;;;8.38;5.70;;;;;;;13.83;44.28;102776.81;4876507;28;114868;-72
2021/04/24 08:34:12;;;;;;;12.52;5.55;;;;;;;13.91;43.87;102778.38;4876664;28;124227;-72
2021/04/24 08:36:39;;;;;;;11.00;5.70;;;;;;;14.00;43.97;102778.13;4875662;28;122912;-72
2021/04/24 08:39:07;;;;;;;13.25;6.38;;;;;;;14.09;43.77;102779.63;4876860;28;115010;-72
2021/04/24 08:41:35;;;;;;;11.32;6.10;;;;;;;14.16;43.30;102787.41;4861127;28;114414;-72
2021/04/24 08:44:03;;;;;;;11.93;5.80;;;;;;;14.20;42.96;102783.78;4861433;28;124371;-72
2021/04/24 08:46:29;;;;;;;17.02;6.60;;;;;;;14.24;42.99;102783.66;4875366;28;123996;-72
2021/04/24 08:48:57;;;;;;;9.68;6.30;;;;;;;14.26;42.35;102789.81;4859542;28;113997;-72
2021/04/24 08:51:26;;;;;;;9.85;5.90;;;;;;;14.28;42.63;102787.97;4876457;28;114305;-72
2021/04/24 08:53:53;;;;;;;8.23;5.25;;;;;;;14.33;42.54;102780.72;4875798;28;124016;-72
2021/04/24 08:56:24;;;;;;;10.93;5.68;;;;;;;14.42;42.21;102775.13;4859260;28;124047;-72
2021/04/24 08:58:53;;;;;;;8.25;4.97;;;;;;;14.53;42.38;102783.66;4852834;28;115139;-72
2021/04/24 09:01:20;;;;;;;10.50;5.57;;;;;;;14.64;41.93;102779.84;4877749;28;113992;-73
2021/04/24 09:03:47;;;;;;;10.45;5.72;;;;;;;14.71;41.10;102786.72;4879906;28;124752;-73
2021/04/24 09:06:19;;;;;;;9.60;5.63;;;;;;;14.74;40.86;102781.28;4864038;28;123990;-73
2021/04/24 09:09:02;;;;;;;9.40;5.70;;;;;;;14.77;40.59;102786.53;4856065;28;114291;-73
2021/04/24 09:11:38;;;;;;;8.60;4.30;;;;;;;14.79;40.25;102785.56;4857501;28;113038;-73
2021/04/24 09:14:07;;;;;;;9.00;5.32;;;;;;;14.82;39.93;102779.25;4870691;28;123982;-73
2021/04/24 09:16:35;;;;;;;10.23;5.43;;;;;;;14.83;40.15;102781.00;4859773;28;123158;-73
2021/04/24 09:19:22;;;;;;;7.78;5.00;;;;;;;14.88;39.92;102767.50;4862981;28;114962;-73
2021/04/24 09:22:14;;;;;;;9.30;5.00;;;;;;;14.93;39.80;102766.44;4864308;28;115378;-73
2021/04/24 09:24:41;;;;;;;9.80;5.38;;;;;;;14.95;39.40;102764.59;4855393;28;123480;-73
2021/04/24 09:27:09;;;;;;;8.95;5.25;;;;;;;14.99;39.22;102766.25;4868821;28;124409;-72
2021/04/24 09:30:13;;;;;;;10.05;5.43;;;;;;;15.01;39.29;102758.16;4875289;28;114533;-73
2021/04/24 09:32:39;;;;;;;8.60;5.00;;;;;;;15.08;39.72;102764.19;4869349;28;113637;-73
2021/04/24 09:35:07;;;;;;;10.13;5.40;;;;;;;15.17;39.43;102753.22;4858358;28;123076;-73
2021/04/24 09:37:33;;;;;;;5.95;4.10;;;;;;;15.24;38.42;102754.75;4918871;23;123962;-73
2021/04/24 09:40:00;;;;;;;16.25;4.88;;;;;;;15.28;38.39;102751.06;4899053;28;113086;-73
2021/04/24 09:42:36;;;;;;;7.40;4.28;;;;;;;15.32;37.98;102752.69;4889431;28;113322;-73
2021/04/24 09:45:23;;;;;;;7.65;4.57;;;;;;;15.40;38.22;102749.75;4893110;28;123941;-73
2021/04/24 09:47:51;;;;;;;6.75;4.28;;;;;;;15.51;38.26;102758.25;4886662;28;123925;-73
2021/04/24 09:50:21;;;;;;;6.65;4.60;;;;;;;15.56;37.91;102750.97;4910909;28;114373;-73
2021/04/24 09:52:47;;;;;;;5.85;4.55;;;;;;;15.63;37.83;102746.25;4876855;28;113541;-73
2021/04/24 09:55:35;;;;;;;8.40;5.15;;;;;;;15.66;38.11;102740.81;4912607;28;124257;-73
2021/04/24 09:58:03;;;;;;;7.22;4.40;;;;;;;15.71;37.71;102743.34;4887684;28;123814;-73
2021/04/24 10:00:30;;;;;;;9.00;4.63;;;;;;;15.75;37.67;102745.84;4897483;28;114477;-73
2021/04/24 10:02:59;;;;;;;6.55;3.92;;;;;;;15.81;37.65;102733.22;4918384;28;114611;-73
2021/04/24 10:05:26;;;;;;;6.90;3.83;;;;;;;15.86;37.45;102739.25;4911445;28;124033;-73
2021/04/24 10:07:54;;;;;;;6.63;3.95;;;;;;;15.89;36.88;102736.47;4895984;28;123825;-74
2021/04/24 10:10:38;;;;;;;6.00;3.65;;;;;;;15.89;37.13;102731.13;4923734;28;115551;-74
2021/04/24 10:13:07;;;;;;;7.10;4.00;;;;;;;15.96;36.72;102721.94;4884898;28;114575;-73
2021/04/24 10:15:34;;;;;;;7.25;4.45;;;;;;;16.03;36.56;102727.91;4901268;28;123341;-74
2021/04/24 10:18:02;;;;;;;7.03;4.07;;;;;;;16.06;35.94;102730.47;4917764;28;123319;-73
2021/04/24 10:20:32;;;;;;;5.95;3.60;;;;;;;16.06;35.77;102717.97;4898997;28;113236;-74
2021/04/24 10:23:01;;;;;;;5.45;3.83;;;;;;;16.06;35.21;102719.78;4919607;28;115673;-74
2021/04/24 10:25:29;;;;;;;6.35;3.58;;;;;;;16.04;34.43;102725.19;4912029;28;124082;-73
2021/04/24 10:27:57;;;;;;;5.72;3.83;;;;;;;15.95;34.28;102715.75;4900209;28;122864;-74
2021/04/24 10:30:24;;;;;;;5.78;3.47;;;;;;;15.90;35.03;102712.38;4927923;28;114328;-73
2021/04/24 10:32:55;;;;;;;7.25;3.15;;;;;;;15.90;34.52;102711.50;4895524;28;112944;-73
2021/04/24 10:35:25;;;;;;;7.25;3.33;;;;;;;15.90;34.97;102714.16;4905573;28;122796;-73
2021/04/24 10:37:53;;;;;;;6.68;3.47;;;;;;;15.93;35.16;102706.00;4914171;28;124111;-73
2021/04/24 10:40:21;;;;;;;5.82;3.60;;;;;;;15.97;34.96;102699.63;4902170;28;114501;-73
2021/04/24 10:42:58;;;;;;;6.40;3.70;;;;;;;16.00;35.84;102704.84;4903290;28;113894;-73
2021/04/24 10:45:33;;;;;;;6.22;3.40;;;;;;;16.04;34.72;102701.13;4906967;28;124276;-73
2021/04/24 10:48:01;;;;;;;5.90;2.75;;;;;;;16.08;34.55;102705.44;4918456;28;123819;-74
2021/04/24 10:50:40;;;;;;;6.00;2.83;;;;;;;16.11;34.90;102710.66;4886977;28;114316;-74
2021/04/24 10:53:27;;;;;;;5.63;3.40;;;;;;;16.15;34.67;102701.59;4910833;28;114128;-73
2021/04/24 10:55:55;;;;;;;6.47;3.17;;;;;;;16.20;34.19;102703.22;4887107;28;124874;-73
2021/04/24 10:58:24;;;;;;;6.72;3.60;;;;;;;16.21;34.20;102704.97;4895382;28;123704;-74
2021/04/24 11:00:59;;;;;;;5.35;3.40;;;;;;;16.23;34.75;102701.28;4920235;28;115727;-73
2021/04/24 11:03:35;;;;;;;6.82;3.67;;;;;;;16.32;34.60;102695.59;4905181;28;114833;-73
2021/04/24 11:06:09;;;;;;;9.30;4.10;;;;;;;16.43;35.03;102700.50;4908329;28;124099;-73
2021/04/24 11:08:36;;;;;;;7.05;3.95;;;;;;;16.55;35.07;102699.16;4898324;28;123391;-73
2021/04/24 11:11:11;;;;;;;6.95;4.20;;;;;;;16.64;34.73;102692.56;4917233;28;114271;-74
2021/04/24 11:13:43;;;;;;;6.72;3.80;;;;;;;16.73;34.53;102697.53;4916791;28;114446;-73
2021/04/24 11:16:17;;;;;;;5.15;3.70;;;;;;;16.84;34.32;102691.75;4898629;28;124029;-73
2021/04/24 11:18:48;;;;;;;6.50;4.07;;;;;;;16.96;34.37;102687.72;4908978;28;123819;-73